sensor_id;sensor_type;location;lat;lon;timestamp;pressure;altitude;pressure_sealevel;temperature;humidity
44839;BME280;30576;42.098;24.876;2023-04-03T00:01:21;99080.69;;;10.35;58.58
44839;BME280;30576;42.098;24.876;2023-04-03T00:03:46;99077.06;;;10.00;58.84
44839;BME280;30576;42.098;24.876;2023-04-03T00:06:11;99073.41;;;9.65;59.32
44839;BME280;30576;42.098;24.876;2023-04-03T00:08:37;99069.91;;;10.05;59.08
44839;BME280;30576;42.098;24.876;2023-04-03T00:11:03;99069.59;;;10.19;57.89
44839;BME280;30576;42.098;24.876;2023-04-03T00:13:29;99069.28;;;10.33;58.23
44839;BME280;30576;42.098;24.876;2023-04-03T00:15:54;99071.75;;;10.41;57.20
44839;BME280;30576;42.098;24.876;2023-04-03T00:18:20;99062.78;;;10.48;57.33
44839;BME280;30576;42.098;24.876;2023-04-03T00:20:45;99072.13;;;10.60;56.71
44839;BME280;30576;42.098;24.876;2023-04-03T00:23:11;99068.59;;;10.61;56.08
44839;BME280;30576;42.098;24.876;2023-04-03T00:25:36;99068.66;;;10.59;56.01
44839;BME280;30576;42.098;24.876;2023-04-03T00:28:02;99069.59;;;10.56;56.09
44839;BME280;30576;42.098;24.876;2023-04-03T00:30:27;99076.56;;;10.59;55.49
44839;BME280;30576;42.098;24.876;2023-04-03T00:32:53;99075.72;;;10.59;55.78
44839;BME280;30576;42.098;24.876;2023-04-03T00:35:19;99078.69;;;10.45;55.90
44839;BME280;30576;42.098;24.876;2023-04-03T00:37:45;99079.69;;;10.39;55.87
44839;BME280;30576;42.098;24.876;2023-04-03T00:40:10;99076.19;;;10.38;56.73
44839;BME280;30576;42.098;24.876;2023-04-03T00:42:37;99078.75;;;10.42;56.66
44839;BME280;30576;42.098;24.876;2023-04-03T00:47:27;99077.94;;;10.39;56.29
44839;BME280;30576;42.098;24.876;2023-04-03T00:49:54;99081.41;;;10.42;56.59
44839;BME280;30576;42.098;24.876;2023-04-03T00:52:21;99076.69;;;10.15;57.25
44839;BME280;30576;42.098;24.876;2023-04-03T00:54:49;99077.66;;;10.11;57.27
44839;BME280;30576;42.098;24.876;2023-04-03T00:57:15;99075.06;;;9.71;58.80
44839;BME280;30576;42.098;24.876;2023-04-03T00:59:46;99075.44;;;9.93;58.11
44839;BME280;30576;42.098;24.876;2023-04-03T01:02:13;99078.97;;;9.93;59.04
44839;BME280;30576;42.098;24.876;2023-04-03T01:04:40;99080.47;;;10.03;59.12
44839;BME280;30576;42.098;24.876;2023-04-03T01:07:10;99084.59;;;10.15;58.56
44839;BME280;30576;42.098;24.876;2023-04-03T01:09:36;99083.25;;;9.97;59.43
44839;BME280;30576;42.098;24.876;2023-04-03T01:12:22;99091.44;;;9.83;60.19
44839;BME280;30576;42.098;24.876;2023-04-03T01:14:49;99083.53;;;9.83;59.95
44839;BME280;30576;42.098;24.876;2023-04-03T01:17:34;99078.78;;;10.01;60.08
44839;BME280;30576;42.098;24.876;2023-04-03T01:25:09;99084.56;;;10.17;58.71
44839;BME280;30576;42.098;24.876;2023-04-03T01:27:35;99081.16;;;10.13;58.85
44839;BME280;30576;42.098;24.876;2023-04-03T01:30:00;99082.69;;;9.83;59.89
44839;BME280;30576;42.098;24.876;2023-04-03T01:32:25;99073.88;;;9.85;59.70
44839;BME280;30576;42.098;24.876;2023-04-03T01:34:51;99070.31;;;9.86;60.36
44839;BME280;30576;42.098;24.876;2023-04-03T01:37:16;99079.09;;;9.87;60.58
44839;BME280;30576;42.098;24.876;2023-04-03T01:39:41;99070.00;;;10.00;59.83
44839;BME280;30576;42.098;24.876;2023-04-03T01:42:07;99075.56;;;9.86;59.45
44839;BME280;30576;42.098;24.876;2023-04-03T01:44:32;99076.59;;;9.81;59.24
44839;BME280;30576;42.098;24.876;2023-04-03T01:46:57;99077.31;;;9.88;58.65
44839;BME280;30576;42.098;24.876;2023-04-03T01:49:22;99082.34;;;9.58;59.73
44839;BME280;30576;42.098;24.876;2023-04-03T01:51:48;99086.03;;;9.49;59.38
44839;BME280;30576;42.098;24.876;2023-04-03T01:54:13;99085.34;;;9.41;60.24
44839;BME280;30576;42.098;24.876;2023-04-03T01:56:38;99086.97;;;9.45;60.60
44839;BME280;30576;42.098;24.876;2023-04-03T01:59:04;99086.72;;;9.57;60.25
44839;BME280;30576;42.098;24.876;2023-04-03T02:01:29;99082.94;;;9.71;59.60
44839;BME280;30576;42.098;24.876;2023-04-03T02:03:55;99092.50;;;9.76;59.25
44839;BME280;30576;42.098;24.876;2023-04-03T02:06:20;99090.06;;;9.67;59.90
44839;BME280;30576;42.098;24.876;2023-04-03T02:08:46;99090.84;;;9.28;60.88
44839;BME280;30576;42.098;24.876;2023-04-03T02:11:11;99093.63;;;9.64;60.65
44839;BME280;30576;42.098;24.876;2023-04-03T02:13:36;99099.72;;;9.66;60.40
44839;BME280;30576;42.098;24.876;2023-04-03T02:16:09;99093.50;;;9.71;59.99
44839;BME280;30576;42.098;24.876;2023-04-03T02:18:35;99088.88;;;9.80;60.10
44839;BME280;30576;42.098;24.876;2023-04-03T02:21:00;99096.09;;;9.72;60.04
44839;BME280;30576;42.098;24.876;2023-04-03T02:23:25;99091.97;;;10.01;59.31
44839;BME280;30576;42.098;24.876;2023-04-03T02:25:50;99094.50;;;10.06;58.90
44839;BME280;30576;42.098;24.876;2023-04-03T02:28:16;99099.47;;;10.19;58.52
44839;BME280;30576;42.098;24.876;2023-04-03T02:30:41;99101.25;;;10.17;58.60
44839;BME280;30576;42.098;24.876;2023-04-03T02:33:06;99100.63;;;10.06;58.81
44839;BME280;30576;42.098;24.876;2023-04-03T02:35:32;99096.78;;;10.21;58.23
44839;BME280;30576;42.098;24.876;2023-04-03T02:37:57;99099.63;;;10.12;58.20
44839;BME280;30576;42.098;24.876;2023-04-03T02:40:22;99092.19;;;9.92;58.63
44839;BME280;30576;42.098;24.876;2023-04-03T02:42:47;99097.75;;;9.78;57.88
44839;BME280;30576;42.098;24.876;2023-04-03T02:45:13;99095.63;;;9.53;58.92
44839;BME280;30576;42.098;24.876;2023-04-03T02:47:38;99099.22;;;9.47;58.91
44839;BME280;30576;42.098;24.876;2023-04-03T02:50:04;99109.88;;;9.41;59.94
44839;BME280;30576;42.098;24.876;2023-04-03T02:52:29;99098.47;;;9.42;60.13
44839;BME280;30576;42.098;24.876;2023-04-03T02:54:54;99098.47;;;9.42;60.32
44839;BME280;30576;42.098;24.876;2023-04-03T02:57:20;99099.34;;;9.41;60.44
44839;BME280;30576;42.098;24.876;2023-04-03T02:59:45;99094.00;;;9.46;60.15
44839;BME280;30576;42.098;24.876;2023-04-03T03:02:10;99087.75;;;9.52;59.89
44839;BME280;30576;42.098;24.876;2023-04-03T03:04:36;99081.66;;;9.48;60.04
44839;BME280;30576;42.098;24.876;2023-04-03T03:07:01;99077.28;;;9.48;60.11
44839;BME280;30576;42.098;24.876;2023-04-03T03:09:27;99067.84;;;9.37;60.28
44839;BME280;30576;42.098;24.876;2023-04-03T03:11:52;99071.88;;;9.09;61.17
44839;BME280;30576;42.098;24.876;2023-04-03T03:14:18;99068.00;;;9.29;60.27
44839;BME280;30576;42.098;24.876;2023-04-03T03:16:43;99069.75;;;9.30;60.77
44839;BME280;30576;42.098;24.876;2023-04-03T03:19:09;99072.00;;;9.03;60.98
44839;BME280;30576;42.098;24.876;2023-04-03T03:21:34;99073.13;;;8.90;61.42
44839;BME280;30576;42.098;24.876;2023-04-03T03:23:59;99069.66;;;8.88;60.90
44839;BME280;30576;42.098;24.876;2023-04-03T03:26:25;99067.50;;;8.60;62.54
44839;BME280;30576;42.098;24.876;2023-04-03T03:28:50;99075.63;;;8.46;62.54
44839;BME280;30576;42.098;24.876;2023-04-03T03:31:16;99061.75;;;8.35;62.27
44839;BME280;30576;42.098;24.876;2023-04-03T03:33:41;99068.63;;;8.47;62.84
44839;BME280;30576;42.098;24.876;2023-04-03T03:36:06;99057.00;;;8.58;62.63
44839;BME280;30576;42.098;24.876;2023-04-03T03:38:32;99052.75;;;8.53;62.68
44839;BME280;30576;42.098;24.876;2023-04-03T03:40:57;99050.28;;;8.40;62.91
44839;BME280;30576;42.098;24.876;2023-04-03T03:43:22;99058.13;;;8.45;63.35
44839;BME280;30576;42.098;24.876;2023-04-03T03:45:51;99058.34;;;8.30;63.40
44839;BME280;30576;42.098;24.876;2023-04-03T03:48:17;99061.72;;;8.36;63.14
44839;BME280;30576;42.098;24.876;2023-04-03T03:50:43;99066.06;;;8.40;62.77
44839;BME280;30576;42.098;24.876;2023-04-03T03:53:08;99067.22;;;8.21;63.25
44839;BME280;30576;42.098;24.876;2023-04-03T03:55:33;99074.41;;;8.10;63.30
44839;BME280;30576;42.098;24.876;2023-04-03T03:57:59;99072.56;;;8.15;62.99
44839;BME280;30576;42.098;24.876;2023-04-03T04:00:26;99073.94;;;7.80;64.46
44839;BME280;30576;42.098;24.876;2023-04-03T04:02:51;99083.16;;;8.09;63.91
44839;BME280;30576;42.098;24.876;2023-04-03T04:05:16;99087.91;;;7.83;63.45
44839;BME280;30576;42.098;24.876;2023-04-03T04:07:41;99089.78;;;7.72;64.15
44839;BME280;30576;42.098;24.876;2023-04-03T04:10:07;99096.63;;;7.85;63.84
44839;BME280;30576;42.098;24.876;2023-04-03T04:12:32;99097.72;;;7.67;64.56
44839;BME280;30576;42.098;24.876;2023-04-03T04:14:58;99101.09;;;7.79;64.59
44839;BME280;30576;42.098;24.876;2023-04-03T04:17:23;99103.81;;;7.71;64.54
44839;BME280;30576;42.098;24.876;2023-04-03T04:19:48;99098.78;;;7.54;64.73
44839;BME280;30576;42.098;24.876;2023-04-03T04:22:16;99112.00;;;7.46;65.23
44839;BME280;30576;42.098;24.876;2023-04-03T04:24:42;99114.66;;;7.43;65.93
44839;BME280;30576;42.098;24.876;2023-04-03T04:27:07;99120.84;;;7.36;66.08
44839;BME280;30576;42.098;24.876;2023-04-03T04:29:32;99121.66;;;7.41;66.17
44839;BME280;30576;42.098;24.876;2023-04-03T04:32:01;99127.53;;;7.65;66.64
44839;BME280;30576;42.098;24.876;2023-04-03T04:34:26;99132.31;;;8.02;65.44
44839;BME280;30576;42.098;24.876;2023-04-03T04:36:51;99135.75;;;8.05;66.00
44839;BME280;30576;42.098;24.876;2023-04-03T04:39:17;99132.13;;;8.16;66.13
44839;BME280;30576;42.098;24.876;2023-04-03T04:41:42;99127.81;;;8.10;66.60
44839;BME280;30576;42.098;24.876;2023-04-03T04:44:07;99129.50;;;8.14;67.06
44839;BME280;30576;42.098;24.876;2023-04-03T04:46:34;99119.72;;;8.24;66.15
44839;BME280;30576;42.098;24.876;2023-04-03T04:48:59;99112.44;;;8.41;66.51
44839;BME280;30576;42.098;24.876;2023-04-03T04:51:25;99118.59;;;8.42;66.28
44839;BME280;30576;42.098;24.876;2023-04-03T04:53:50;99132.38;;;8.58;65.47
44839;BME280;30576;42.098;24.876;2023-04-03T04:56:16;99123.03;;;8.94;63.83
44839;BME280;30576;42.098;24.876;2023-04-03T04:58:41;99133.16;;;9.16;63.51
44839;BME280;30576;42.098;24.876;2023-04-03T05:01:07;99134.47;;;9.40;62.26
44839;BME280;30576;42.098;24.876;2023-04-03T05:03:33;99129.06;;;9.46;61.53
44839;BME280;30576;42.098;24.876;2023-04-03T05:05:58;99125.69;;;9.83;61.03
44839;BME280;30576;42.098;24.876;2023-04-03T05:08:24;99132.56;;;9.92;60.48
44839;BME280;30576;42.098;24.876;2023-04-03T05:10:49;99127.78;;;10.10;59.80
44839;BME280;30576;42.098;24.876;2023-04-03T05:13:15;99132.88;;;10.17;59.40
44839;BME280;30576;42.098;24.876;2023-04-03T05:15:40;99143.41;;;10.17;58.91
44839;BME280;30576;42.098;24.876;2023-04-03T05:18:06;99133.69;;;10.21;58.77
44839;BME280;30576;42.098;24.876;2023-04-03T05:20:31;99144.88;;;10.31;58.59
44839;BME280;30576;42.098;24.876;2023-04-03T05:22:57;99150.16;;;10.31;58.19
44839;BME280;30576;42.098;24.876;2023-04-03T05:25:22;99144.28;;;10.59;58.13
44839;BME280;30576;42.098;24.876;2023-04-03T05:27:48;99144.25;;;10.60;58.38
44839;BME280;30576;42.098;24.876;2023-04-03T05:30:13;99163.09;;;10.81;57.30
44839;BME280;30576;42.098;24.876;2023-04-03T05:32:38;99151.25;;;10.97;56.91
44839;BME280;30576;42.098;24.876;2023-04-03T05:35:04;99142.09;;;11.10;56.69
44839;BME280;30576;42.098;24.876;2023-04-03T05:37:30;99141.63;;;10.95;57.61
44839;BME280;30576;42.098;24.876;2023-04-03T05:39:56;99148.38;;;11.06;58.24
44839;BME280;30576;42.098;24.876;2023-04-03T05:42:21;99144.13;;;11.34;57.71
44839;BME280;30576;42.098;24.876;2023-04-03T05:44:46;99141.53;;;11.32;57.26
44839;BME280;30576;42.098;24.876;2023-04-03T05:47:12;99146.59;;;11.40;56.62
44839;BME280;30576;42.098;24.876;2023-04-03T05:49:37;99157.09;;;11.43;56.58
44839;BME280;30576;42.098;24.876;2023-04-03T05:52:06;99172.72;;;11.51;56.08
44839;BME280;30576;42.098;24.876;2023-04-03T05:54:31;99169.22;;;11.50;57.19
44839;BME280;30576;42.098;24.876;2023-04-03T05:56:56;99163.81;;;11.86;56.68
44839;BME280;30576;42.098;24.876;2023-04-03T05:59:22;99172.84;;;12.10;56.04
44839;BME280;30576;42.098;24.876;2023-04-03T06:01:47;99167.91;;;12.28;56.29
44839;BME280;30576;42.098;24.876;2023-04-03T06:04:13;99155.34;;;12.36;56.50
44839;BME280;30576;42.098;24.876;2023-04-03T06:09:13;99150.72;;;11.81;62.35
44839;BME280;30576;42.098;24.876;2023-04-03T06:11:39;99159.19;;;11.30;63.31
44839;BME280;30576;42.098;24.876;2023-04-03T06:14:04;99162.66;;;11.32;62.98
44839;BME280;30576;42.098;24.876;2023-04-03T06:16:29;99161.69;;;11.36;62.30
44839;BME280;30576;42.098;24.876;2023-04-03T06:18:55;99171.66;;;11.58;61.26
44839;BME280;30576;42.098;24.876;2023-04-03T06:21:21;99180.59;;;11.85;60.77
44839;BME280;30576;42.098;24.876;2023-04-03T06:23:46;99180.66;;;12.15;60.46
44839;BME280;30576;42.098;24.876;2023-04-03T06:26:11;99174.28;;;12.50;60.09
44839;BME280;30576;42.098;24.876;2023-04-03T06:28:37;99174.00;;;12.60;59.14
44839;BME280;30576;42.098;24.876;2023-04-03T06:31:02;99168.63;;;12.89;58.80
44839;BME280;30576;42.098;24.876;2023-04-03T06:33:27;99170.75;;;13.05;58.67
44839;BME280;30576;42.098;24.876;2023-04-03T06:35:59;99152.91;;;13.12;56.84
44839;BME280;30576;42.098;24.876;2023-04-03T06:38:24;99153.56;;;13.18;56.95
44839;BME280;30576;42.098;24.876;2023-04-03T06:40:50;99148.84;;;13.26;56.52
44839;BME280;30576;42.098;24.876;2023-04-03T06:43:16;99158.59;;;13.26;58.09
44839;BME280;30576;42.098;24.876;2023-04-03T06:45:42;99159.38;;;13.28;58.12
44839;BME280;30576;42.098;24.876;2023-04-03T06:48:07;99167.06;;;13.37;59.08
44839;BME280;30576;42.098;24.876;2023-04-03T06:50:32;99166.66;;;13.48;59.20
44839;BME280;30576;42.098;24.876;2023-04-03T06:52:58;99178.03;;;13.77;58.64
44839;BME280;30576;42.098;24.876;2023-04-03T06:55:23;99179.75;;;13.53;54.84
44839;BME280;30576;42.098;24.876;2023-04-03T06:57:49;99169.22;;;13.76;54.50
44839;BME280;30576;42.098;24.876;2023-04-03T07:00:14;99176.75;;;13.38;54.88
44839;BME280;30576;42.098;24.876;2023-04-03T07:02:41;99178.03;;;13.52;54.78
44839;BME280;30576;42.098;24.876;2023-04-03T07:05:06;99171.25;;;13.68;56.35
44839;BME280;30576;42.098;24.876;2023-04-03T07:07:32;99181.44;;;13.55;55.10
44839;BME280;30576;42.098;24.876;2023-04-03T07:09:59;99190.13;;;13.59;54.33
44839;BME280;30576;42.098;24.876;2023-04-03T07:12:24;99198.31;;;13.78;53.97
44839;BME280;30576;42.098;24.876;2023-04-03T07:14:50;99194.06;;;13.49;54.05
44839;BME280;30576;42.098;24.876;2023-04-03T07:17:15;99193.94;;;13.77;53.43
44839;BME280;30576;42.098;24.876;2023-04-03T07:19:40;99201.09;;;13.75;53.08
44839;BME280;30576;42.098;24.876;2023-04-03T07:22:06;99205.44;;;13.76;53.80
44839;BME280;30576;42.098;24.876;2023-04-03T07:24:31;99187.31;;;13.89;53.46
44839;BME280;30576;42.098;24.876;2023-04-03T07:26:57;99189.41;;;14.28;51.35
44839;BME280;30576;42.098;24.876;2023-04-03T07:29:22;99177.16;;;14.47;50.53
44839;BME280;30576;42.098;24.876;2023-04-03T07:31:47;99182.91;;;14.59;50.83
44839;BME280;30576;42.098;24.876;2023-04-03T07:34:14;99184.91;;;14.98;50.12
44839;BME280;30576;42.098;24.876;2023-04-03T07:36:39;99185.78;;;14.98;49.66
44839;BME280;30576;42.098;24.876;2023-04-03T07:39:05;99181.47;;;15.16;48.45
44839;BME280;30576;42.098;24.876;2023-04-03T07:41:32;99184.16;;;14.94;49.25
44839;BME280;30576;42.098;24.876;2023-04-03T07:43:57;99179.91;;;15.12;47.83
44839;BME280;30576;42.098;24.876;2023-04-03T07:46:23;99173.16;;;15.03;48.99
44839;BME280;30576;42.098;24.876;2023-04-03T07:48:48;99173.44;;;15.18;47.88
44839;BME280;30576;42.098;24.876;2023-04-03T07:51:14;99178.44;;;15.26;48.72
44839;BME280;30576;42.098;24.876;2023-04-03T07:53:40;99180.44;;;15.41;48.40
44839;BME280;30576;42.098;24.876;2023-04-03T07:56:05;99167.53;;;15.73;48.04
44839;BME280;30576;42.098;24.876;2023-04-03T07:58:31;99168.81;;;15.64;47.82
44839;BME280;30576;42.098;24.876;2023-04-03T08:00:56;99166.00;;;15.88;48.14
44839;BME280;30576;42.098;24.876;2023-04-03T08:03:22;99170.31;;;15.90;48.43
44839;BME280;30576;42.098;24.876;2023-04-03T08:05:48;99163.16;;;15.72;49.40
44839;BME280;30576;42.098;24.876;2023-04-03T08:08:15;99148.84;;;15.95;48.07
44839;BME280;30576;42.098;24.876;2023-04-03T08:10:41;99144.59;;;15.70;48.33
44839;BME280;30576;42.098;24.876;2023-04-03T08:13:07;99138.91;;;15.80;48.16
44839;BME280;30576;42.098;24.876;2023-04-03T08:15:32;99133.13;;;15.70;48.23
44839;BME280;30576;42.098;24.876;2023-04-03T08:17:58;99142.28;;;15.83;46.92
44839;BME280;30576;42.098;24.876;2023-04-03T08:20:24;99135.97;;;16.05;46.58
44839;BME280;30576;42.098;24.876;2023-04-03T08:22:49;99141.00;;;16.11;46.03
44839;BME280;30576;42.098;24.876;2023-04-03T08:25:15;99142.81;;;16.10;45.50
44839;BME280;30576;42.098;24.876;2023-04-03T08:27:40;99138.94;;;16.18;43.58
44839;BME280;30576;42.098;24.876;2023-04-03T08:30:06;99140.72;;;16.17;44.27
44839;BME280;30576;42.098;24.876;2023-04-03T08:32:33;99143.66;;;16.11;42.80
44839;BME280;30576;42.098;24.876;2023-04-03T08:34:59;99139.66;;;16.21;43.63
44839;BME280;30576;42.098;24.876;2023-04-03T08:37:25;99133.84;;;16.13;43.75
44839;BME280;30576;42.098;24.876;2023-04-03T08:39:50;99131.69;;;16.02;44.02
44839;BME280;30576;42.098;24.876;2023-04-03T08:47:44;99114.75;;;15.84;44.41
44839;BME280;30576;42.098;24.876;2023-04-03T08:50:12;99112.44;;;15.96;44.63
44839;BME280;30576;42.098;24.876;2023-04-03T08:52:52;99108.59;;;16.03;44.92
44839;BME280;30576;42.098;24.876;2023-04-03T08:55:25;99105.50;;;15.93;44.99
44839;BME280;30576;42.098;24.876;2023-04-03T08:57:56;99107.50;;;15.88;45.67
44839;BME280;30576;42.098;24.876;2023-04-03T09:00:24;99100.75;;;16.00;45.91
44839;BME280;30576;42.098;24.876;2023-04-03T09:02:54;99095.47;;;16.17;46.04
44839;BME280;30576;42.098;24.876;2023-04-03T09:05:42;99102.06;;;16.10;46.36
44839;BME280;30576;42.098;24.876;2023-04-03T09:10:32;99095.50;;;15.98;46.53
44839;BME280;30576;42.098;24.876;2023-04-03T09:13:05;99097.75;;;15.68;47.35
44839;BME280;30576;42.098;24.876;2023-04-03T09:15:32;99097.41;;;15.75;47.01
44839;BME280;30576;42.098;24.876;2023-04-03T09:18:19;99092.19;;;15.53;46.76
44839;BME280;30576;42.098;24.876;2023-04-03T09:20:46;99088.44;;;15.38;47.37
44839;BME280;30576;42.098;24.876;2023-04-03T09:23:24;99098.69;;;15.67;47.28
44839;BME280;30576;42.098;24.876;2023-04-03T09:25:50;99096.78;;;15.50;46.40
44839;BME280;30576;42.098;24.876;2023-04-03T09:28:16;99090.47;;;15.32;46.32
44839;BME280;30576;42.098;24.876;2023-04-03T09:30:41;99093.56;;;15.43;46.85
44839;BME280;30576;42.098;24.876;2023-04-03T09:33:07;99089.16;;;15.42;48.13
44839;BME280;30576;42.098;24.876;2023-04-03T09:35:37;99096.75;;;15.31;48.97
44839;BME280;30576;42.098;24.876;2023-04-03T09:40:37;99098.34;;;15.14;50.92
44839;BME280;30576;42.098;24.876;2023-04-03T09:43:20;99092.09;;;15.36;50.57
44839;BME280;30576;42.098;24.876;2023-04-03T09:45:47;99088.84;;;15.29;51.63
44839;BME280;30576;42.098;24.876;2023-04-03T09:50:38;99083.25;;;15.15;53.27
44839;BME280;30576;42.098;24.876;2023-04-03T09:53:42;99072.97;;;15.28;54.36
44839;BME280;30576;42.098;24.876;2023-04-03T09:58:46;99065.06;;;14.85;56.00
44839;BME280;30576;42.098;24.876;2023-04-03T10:01:55;99063.97;;;14.68;57.77
44839;BME280;30576;42.098;24.876;2023-04-03T10:06:31;99044.53;;;14.02;58.15
44839;BME280;30576;42.098;24.876;2023-04-03T10:09:00;99065.31;;;14.35;59.59
44839;BME280;30576;42.098;24.876;2023-04-03T10:11:27;99065.97;;;14.41;61.62
44839;BME280;30576;42.098;24.876;2023-04-03T10:16:20;99072.53;;;14.53;60.84
44839;BME280;30576;42.098;24.876;2023-04-03T10:18:49;99074.09;;;14.59;60.82
44839;BME280;30576;42.098;24.876;2023-04-03T10:23:51;99081.13;;;14.60;61.18
44839;BME280;30576;42.098;24.876;2023-04-03T10:28:56;99071.25;;;14.41;61.81
44839;BME280;30576;42.098;24.876;2023-04-03T10:34:04;99061.50;;;14.64;61.28
44839;BME280;30576;42.098;24.876;2023-04-03T10:36:38;99061.78;;;14.56;60.40
44839;BME280;30576;42.098;24.876;2023-04-03T10:42:10;99061.66;;;14.59;59.70
44839;BME280;30576;42.098;24.876;2023-04-03T10:47:22;99069.34;;;14.67;61.03
44839;BME280;30576;42.098;24.876;2023-04-03T10:49:54;99081.38;;;14.54;60.01
44839;BME280;30576;42.098;24.876;2023-04-03T10:52:40;99085.13;;;14.48;60.95
44839;BME280;30576;42.098;24.876;2023-04-03T10:57:34;99090.19;;;14.54;63.61
44839;BME280;30576;42.098;24.876;2023-04-03T11:00:01;99082.53;;;14.46;63.86
44839;BME280;30576;42.098;24.876;2023-04-03T11:02:36;99079.16;;;14.43;63.01
44839;BME280;30576;42.098;24.876;2023-04-03T11:07:37;99083.22;;;14.51;63.14
44839;BME280;30576;42.098;24.876;2023-04-03T11:10:15;99086.44;;;14.82;65.43
44839;BME280;30576;42.098;24.876;2023-04-03T11:12:48;99079.97;;;14.67;65.57
44839;BME280;30576;42.098;24.876;2023-04-03T11:15:17;99076.06;;;14.76;63.65
44839;BME280;30576;42.098;24.876;2023-04-03T11:17:46;99075.09;;;14.78;63.76
44839;BME280;30576;42.098;24.876;2023-04-03T11:20:31;99070.56;;;15.01;62.24
44839;BME280;30576;42.098;24.876;2023-04-03T11:23:06;99053.59;;;15.05;62.20
44839;BME280;30576;42.098;24.876;2023-04-03T11:25:36;99051.25;;;15.18;63.26
44839;BME280;30576;42.098;24.876;2023-04-03T11:28:04;99049.66;;;15.14;62.47
44839;BME280;30576;42.098;24.876;2023-04-03T11:33:14;99059.59;;;14.67;65.39
44839;BME280;30576;42.098;24.876;2023-04-03T11:35:47;99054.44;;;14.64;63.84
44839;BME280;30576;42.098;24.876;2023-04-03T11:38:35;99056.41;;;14.58;65.51
44839;BME280;30576;42.098;24.876;2023-04-03T11:41:04;99059.31;;;14.51;66.11
44839;BME280;30576;42.098;24.876;2023-04-03T11:43:31;99050.16;;;14.38;66.55
44839;BME280;30576;42.098;24.876;2023-04-03T11:46:01;99058.81;;;14.21;65.41
44839;BME280;30576;42.098;24.876;2023-04-03T11:50:57;99049.16;;;14.19;67.71
44839;BME280;30576;42.098;24.876;2023-04-03T11:53:27;99048.25;;;14.20;71.25
44839;BME280;30576;42.098;24.876;2023-04-03T11:58:23;99037.78;;;13.93;72.08
44839;BME280;30576;42.098;24.876;2023-04-03T12:00:50;99045.44;;;14.01;71.91
44839;BME280;30576;42.098;24.876;2023-04-03T12:05:55;99033.44;;;13.92;73.58
44839;BME280;30576;42.098;24.876;2023-04-03T12:08:25;99028.81;;;13.97;74.27
44839;BME280;30576;42.098;24.876;2023-04-03T12:16:23;99031.03;;;13.86;76.43
44839;BME280;30576;42.098;24.876;2023-04-03T12:21:19;99021.88;;;13.71;76.48
44839;BME280;30576;42.098;24.876;2023-04-03T12:26:32;99015.25;;;13.59;78.03
44839;BME280;30576;42.098;24.876;2023-04-03T12:28:59;99010.34;;;13.72;79.22
44839;BME280;30576;42.098;24.876;2023-04-03T12:31:32;99014.53;;;13.77;78.84
44839;BME280;30576;42.098;24.876;2023-04-03T12:34:12;99015.06;;;13.87;78.46
44839;BME280;30576;42.098;24.876;2023-04-03T12:41:57;98998.16;;;13.90;77.54
44839;BME280;30576;42.098;24.876;2023-04-03T12:44:33;98996.56;;;13.86;78.75
44839;BME280;30576;42.098;24.876;2023-04-03T12:47:02;98996.75;;;13.81;77.90
44839;BME280;30576;42.098;24.876;2023-04-03T12:49:39;99000.00;;;13.88;78.31
44839;BME280;30576;42.098;24.876;2023-04-03T12:52:16;99000.66;;;13.71;79.10
44839;BME280;30576;42.098;24.876;2023-04-03T12:54:42;98992.66;;;13.72;79.43
44839;BME280;30576;42.098;24.876;2023-04-03T12:57:18;98990.06;;;13.93;78.03
44839;BME280;30576;42.098;24.876;2023-04-03T12:59:45;98979.09;;;14.02;78.46
44839;BME280;30576;42.098;24.876;2023-04-03T13:02:30;98984.16;;;14.08;78.77
44839;BME280;30576;42.098;24.876;2023-04-03T13:05:04;98993.31;;;14.01;78.17
44839;BME280;30576;42.098;24.876;2023-04-03T13:07:31;98990.34;;;14.09;79.70
44839;BME280;30576;42.098;24.876;2023-04-03T13:10:03;98984.41;;;14.02;80.07
44839;BME280;30576;42.098;24.876;2023-04-03T13:12:28;98979.59;;;14.12;79.84
44839;BME280;30576;42.098;24.876;2023-04-03T13:14:55;98985.28;;;14.03;81.41
44839;BME280;30576;42.098;24.876;2023-04-03T13:17:22;98981.03;;;13.76;84.10
44839;BME280;30576;42.098;24.876;2023-04-03T13:19:47;98972.00;;;13.81;83.79
44839;BME280;30576;42.098;24.876;2023-04-03T13:24:47;98971.31;;;13.53;84.26
44839;BME280;30576;42.098;24.876;2023-04-03T13:27:13;98963.44;;;13.52;84.18
44839;BME280;30576;42.098;24.876;2023-04-03T13:29:39;98956.56;;;13.46;85.76
44839;BME280;30576;42.098;24.876;2023-04-03T13:32:05;98952.84;;;13.26;86.48
44839;BME280;30576;42.098;24.876;2023-04-03T13:34:38;98955.31;;;13.31;88.32
44839;BME280;30576;42.098;24.876;2023-04-03T13:37:06;98949.59;;;13.43;88.60
44839;BME280;30576;42.098;24.876;2023-04-03T13:39:37;98945.84;;;13.49;87.86
44839;BME280;30576;42.098;24.876;2023-04-03T13:42:16;98937.41;;;13.39;88.23
44839;BME280;30576;42.098;24.876;2023-04-03T13:44:42;98936.69;;;13.58;88.47
44839;BME280;30576;42.098;24.876;2023-04-03T13:47:21;98935.44;;;13.45;88.98
44839;BME280;30576;42.098;24.876;2023-04-03T13:52:26;98925.06;;;13.38;89.32
44839;BME280;30576;42.098;24.876;2023-04-03T13:54:56;98924.78;;;13.22;88.63
44839;BME280;30576;42.098;24.876;2023-04-03T13:57:22;98916.25;;;13.14;90.11
44839;BME280;30576;42.098;24.876;2023-04-03T13:59:47;98911.28;;;13.05;91.18
44839;BME280;30576;42.098;24.876;2023-04-03T14:02:29;98900.19;;;12.95;91.71
44839;BME280;30576;42.098;24.876;2023-04-03T14:04:57;98890.41;;;13.21;91.86
44839;BME280;30576;42.098;24.876;2023-04-03T14:07:25;98892.19;;;12.97;92.42
44839;BME280;30576;42.098;24.876;2023-04-03T14:09:51;98887.63;;;13.00;93.09
44839;BME280;30576;42.098;24.876;2023-04-03T14:12:18;98880.00;;;12.93;93.88
44839;BME280;30576;42.098;24.876;2023-04-03T14:14:45;98877.94;;;13.01;94.97